V.b Algeciras — ECCR — position and weather

sailwx.info

Track history (hours):
 
Tides and Currents Weather Stations Pressure Air Temp Water Temp Dewpoint Dewpoint Depression Visibility Wind Speed Wind Dir Waves Ship Positions

V.b Algeciras

Last reported at 2018-Jan-20 18:03 UTC. Time now 2018-Jan-20 21:18 UTC.
Position N 36°08' W 005°25'.

Length 30 m; draft 7 m.

Type: Tug. MMSI: 224121250.

Date/timePositionNaut miles runAvg speedWind from/ knotsBaromVisibWave heightAir tempDewpointWater temp
2018-Jan-20 18:03N 36°08' W 005°25'3 0.2
2018-Jan-19 23:23N 36°10' W 005°23'1 1.9
2018-Jan-19 23:00N 36°11' W 005°24'0 0.0
2018-Jan-19 22:29N 36°11' W 005°24'3 5.3
2018-Jan-19 22:00N 36°08' W 005°25'0 0.7
2018-Jan-19 21:30N 36°08' W 005°26'0 0.0
2018-Jan-19 21:00N 36°08' W 005°26'0 0.0
2018-Jan-19 20:30N 36°08' W 005°26'0 0.0
2018-Jan-19 20:00N 36°08' W 005°26'1 2.0
2018-Jan-19 19:30N 36°09' W 005°26'1 2.5
2018-Jan-19 19:00N 36°08' W 005°25'1 1.3
2018-Jan-19 18:30N 36°08' W 005°26'1 1.5
2018-Jan-19 18:00N 36°08' W 005°26'0 0.0
2018-Jan-19 17:30N 36°08' W 005°26'0 0.0
2018-Jan-19 17:00N 36°08' W 005°26'0 0.0
2018-Jan-19 16:30N 36°08' W 005°26'0 0.0
2018-Jan-19 16:00N 36°08' W 005°26'0 0.0
2018-Jan-19 15:30N 36°08' W 005°26'0 0.0
2018-Jan-19 15:00N 36°08' W 005°26'0 0.0
2018-Jan-19 14:30N 36°08' W 005°26'0 0.0
2018-Jan-19 14:00N 36°08' W 005°26'0 0.0
2018-Jan-19 13:30N 36°08' W 005°26'0 0.0
2018-Jan-19 13:00N 36°08' W 005°26'0 0.0
2018-Jan-19 12:30N 36°08' W 005°26'0 0.0
2018-Jan-19 12:00N 36°08' W 005°26'0 0.0
2018-Jan-19 11:29N 36°08' W 005°26'0 1.0
2018-Jan-19 11:00N 36°08' W 005°26'0 0.9
2018-Jan-19 10:28N 36°08' W 005°26'0 0.1
2018-Jan-19 10:01N 36°08' W 005°26'1 1.6
2018-Jan-19 09:31N 36°08' W 005°26'1 1.6
2018-Jan-19 09:00N 36°08' W 005°26'0 0.0
2018-Jan-19 08:30N 36°08' W 005°26'1 1.4
2018-Jan-19 08:00N 36°08' W 005°26'0 0.5
2018-Jan-19 07:30N 36°08' W 005°26'0 0.0
2018-Jan-19 07:00N 36°08' W 005°26'0 0.0
2018-Jan-19 06:30N 36°08' W 005°26'0 0.3
2018-Jan-19 06:00N 36°08' W 005°26'1 1.5
2018-Jan-19 05:30N 36°08' W 005°25'1 1.7
2018-Jan-19 05:00N 36°08' W 005°26'0 0.0
2018-Jan-19 04:30N 36°08' W 005°26'0 0.0
2018-Jan-19 04:00N 36°08' W 005°26'0 0.0
2018-Jan-19 03:30N 36°08' W 005°26'0 0.0
2018-Jan-19 03:00N 36°08' W 005°26'0 0.0
2018-Jan-19 02:30N 36°08' W 005°26'0 0.0
2018-Jan-19 02:00N 36°08' W 005°26'0 0.0
2018-Jan-19 01:28N 36°08' W 005°26'0 0.0
2018-Jan-19 01:00N 36°08' W 005°26'0 0.0
2018-Jan-19 00:30N 36°08' W 005°26'0 0.0
2018-Jan-19 00:00N 36°08' W 005°26'0 0.0
2018-Jan-18 23:30N 36°08' W 005°26'0 0.0
2018-Jan-18 23:00N 36°08' W 005°26'0 0.0
2018-Jan-18 22:30N 36°08' W 005°26'0 0.0
2018-Jan-18 22:00N 36°08' W 005°26'0 0.0
2018-Jan-18 21:30N 36°08' W 005°26'0 0.0
2018-Jan-18 21:00N 36°08' W 005°26'0 0.0
2018-Jan-18 20:31N 36°08' W 005°26'0 0.6
2018-Jan-18 20:00N 36°08' W 005°25'0 0.3
2018-Jan-18 19:30N 36°08' W 005°26'0 0.0
2018-Jan-18 19:00N 36°08' W 005°26'1 2.2
2018-Jan-18 18:30N 36°09' W 005°26'1 2.2
2018-Jan-18 18:00N 36°08' W 005°26'0 0.4
2018-Jan-18 17:30N 36°08' W 005°26'0 0.0
2018-Jan-18 17:00N 36°08' W 005°26'0 0.0
2018-Jan-18 16:30N 36°08' W 005°26'0 0.0
2018-Jan-18 16:00N 36°08' W 005°26'0 0.0
2018-Jan-18 15:30N 36°08' W 005°26'0 0.0
2018-Jan-18 15:00N 36°08' W 005°26'0 0.0
2018-Jan-18 14:30N 36°08' W 005°26'0 0.0
2018-Jan-18 14:01N 36°08' W 005°26'0 0.0
2018-Jan-18 13:30N 36°08' W 005°26'0 0.0
2018-Jan-18 13:00N 36°08' W 005°26'0 0.0
2018-Jan-18 12:31N 36°08' W 005°26'0 0.0
2018-Jan-18 12:00N 36°08' W 005°26'0 0.0
2018-Jan-18 11:30N 36°08' W 005°26'0 0.0
2018-Jan-18 11:00N 36°08' W 005°26'0 0.0
2018-Jan-18 10:30N 36°08' W 005°26'0 0.5
2018-Jan-18 10:00N 36°08' W 005°26'0 0.5
2018-Jan-18 09:30N 36°08' W 005°26'0 0.0
2018-Jan-18 09:00N 36°08' W 005°26'0 0.0
2018-Jan-18 08:30N 36°08' W 005°26'0 0.0
2018-Jan-18 08:00N 36°08' W 005°26'0 0.0
2018-Jan-18 07:30N 36°08' W 005°26'0 0.0
2018-Jan-18 07:00N 36°08' W 005°26'0 0.0
2018-Jan-18 06:30N 36°08' W 005°26'0 0.0
2018-Jan-18 06:01N 36°08' W 005°26'0 0.8
2018-Jan-18 05:31N 36°08' W 005°26'0 0.0
2018-Jan-18 05:01N 36°08' W 005°26'0 0.0
2018-Jan-18 04:30N 36°08' W 005°26'0 0.0
2018-Jan-18 04:00N 36°08' W 005°26'0 0.0
2018-Jan-18 03:30N 36°08' W 005°26'0 0.0
2018-Jan-18 03:00N 36°08' W 005°26'0 0.0
2018-Jan-18 02:30N 36°08' W 005°26'0 0.0
2018-Jan-18 02:00N 36°08' W 005°26'0 0.0
2018-Jan-18 01:30N 36°08' W 005°26'0 0.0
2018-Jan-18 01:00N 36°08' W 005°26'0 0.0
2018-Jan-18 00:00N 36°08' W 005°26'0 0.0
2018-Jan-17 23:58N 36°08' W 005°26'  
2018-Jan-12 15:00N 36°08' W 005°26'0 0.0
2018-Jan-12 14:30N 36°08' W 005°26'0 0.0
2018-Jan-12 14:00N 36°08' W 005°26'0 0.0
2018-Jan-12 13:30N 36°08' W 005°26'0 0.0
2018-Jan-12 12:58N 36°08' W 005°26'0 0.0
2018-Jan-12 12:30N 36°08' W 005°26'0 0.0
2018-Jan-12 12:00N 36°08' W 005°26'0 0.0
2018-Jan-12 11:30N 36°08' W 005°26'0 0.0
2018-Jan-12 10:59N 36°08' W 005°26'0 0.0
2018-Jan-12 10:30N 36°08' W 005°26'0 0.0
2018-Jan-12 10:00N 36°08' W 005°26'0 0.0
2018-Jan-12 09:30N 36°08' W 005°26'0 0.0
2018-Jan-12 09:00N 36°08' W 005°26'0 0.0
2018-Jan-12 08:30N 36°08' W 005°26'0 0.6
2018-Jan-12 08:01N 36°08' W 005°26'1 1.1
2018-Jan-12 07:30N 36°08' W 005°25'0 0.7
2018-Jan-12 06:59N 36°08' W 005°26'0 0.0
2018-Jan-12 06:30N 36°08' W 005°26'0 0.0
2018-Jan-12 05:59N 36°08' W 005°26'0 0.0
2018-Jan-12 05:31N 36°08' W 005°26'0 0.0
2018-Jan-12 05:00N 36°08' W 005°26'0 0.0
2018-Jan-12 04:31N 36°08' W 005°26'0 0.0
2018-Jan-12 04:00N 36°08' W 005°26'0 0.0
2018-Jan-12 03:30N 36°08' W 005°26'0 0.0
2018-Jan-12 03:00N 36°08' W 005°26'0 0.0
2018-Jan-12 02:31N 36°08' W 005°26'0 0.0
2018-Jan-12 01:58N 36°08' W 005°26'0 0.0
2018-Jan-12 01:30N 36°08' W 005°26'0 0.0
2018-Jan-12 01:00N 36°08' W 005°26'0 0.0
2018-Jan-12 00:30N 36°08' W 005°26'0 0.0
2018-Jan-12 00:00N 36°08' W 005°26'0 0.0
2018-Jan-11 23:30N 36°08' W 005°26'0 0.0
2018-Jan-11 23:00N 36°08' W 005°26'0 0.0
2018-Jan-11 22:30N 36°08' W 005°26'0 0.0
2018-Jan-11 22:00N 36°08' W 005°26'0 0.0
2018-Jan-11 21:30N 36°08' W 005°26'0 0.0
2018-Jan-11 21:00N 36°08' W 005°26'0 0.0
2018-Jan-11 20:30N 36°08' W 005°26'0 0.0
2018-Jan-11 20:00N 36°08' W 005°26'0 0.0
2018-Jan-11 19:30N 36°08' W 005°26'0 0.0
2018-Jan-11 19:00N 36°08' W 005°26'0 0.1
2018-Jan-11 18:30N 36°08' W 005°26'0 0.0
2018-Jan-11 18:00N 36°08' W 005°26'0 0.0
2018-Jan-11 17:30N 36°08' W 005°26'0 0.0
2018-Jan-11 17:00N 36°08' W 005°26'0 0.0
2018-Jan-11 16:30N 36°08' W 005°26'0 0.0
2018-Jan-11 16:00N 36°08' W 005°26'0 0.0
2018-Jan-11 15:29N 36°08' W 005°26'0 0.0
2018-Jan-11 14:58N 36°08' W 005°26'0 0.0
2018-Jan-11 14:30N 36°08' W 005°26'0 0.0
2018-Jan-11 14:00N 36°08' W 005°26'0 0.0
2018-Jan-11 13:29N 36°08' W 005°26'0 0.1
2018-Jan-11 13:01N 36°08' W 005°26'0 0.6
2018-Jan-11 12:30N 36°08' W 005°26'1 1.8
2018-Jan-11 12:00N 36°08' W 005°24'1 2.1
2018-Jan-11 11:30N 36°08' W 005°26'0 0.0
2018-Jan-11 11:00N 36°08' W 005°26'0 0.0
2018-Jan-11 10:30N 36°08' W 005°26'0 0.0
2018-Jan-11 10:00N 36°08' W 005°26'0 0.0
2018-Jan-11 09:30N 36°08' W 005°26'0 0.0
2018-Jan-11 09:00N 36°08' W 005°26'0 0.0
2018-Jan-11 08:30N 36°08' W 005°26'0 0.0
2018-Jan-11 08:00N 36°08' W 005°26'0 0.0
2018-Jan-11 07:30N 36°08' W 005°26'0 0.0
2018-Jan-11 07:00N 36°08' W 005°26'0 0.0
2018-Jan-11 06:30N 36°08' W 005°26'0 0.7
2018-Jan-11 06:00N 36°08' W 005°26'0 0.7
2018-Jan-11 05:30N 36°08' W 005°26'0 0.0
2018-Jan-11 05:01N 36°08' W 005°26'0 0.0
2018-Jan-11 04:30N 36°08' W 005°26'0 0.0
2018-Jan-11 04:00N 36°08' W 005°26'0 0.0
2018-Jan-11 03:30N 36°08' W 005°26'0 0.0
2018-Jan-11 03:00N 36°08' W 005°26'0 0.0
2018-Jan-11 02:30N 36°08' W 005°26'0 0.0
2018-Jan-11 02:01N 36°08' W 005°26'0 0.0
2018-Jan-11 01:30N 36°08' W 005°26'0 0.0
2018-Jan-11 01:00N 36°08' W 005°26'0 0.0
2018-Jan-11 00:30N 36°08' W 005°26'0 0.0
2018-Jan-11 00:00N 36°08' W 005°26'0 0.0
2018-Jan-10 23:30N 36°08' W 005°26'0 0.0
2018-Jan-10 23:00N 36°08' W 005°26'1 1.0
2018-Jan-10 22:30N 36°08' W 005°25'1 1.0
2018-Jan-10 22:00N 36°08' W 005°26'0 0.0
2018-Jan-10 21:30N 36°08' W 005°26'0 0.0
2018-Jan-10 20:59N 36°08' W 005°26'0 0.0
2018-Jan-10 20:30N 36°08' W 005°26'0 0.0
2018-Jan-10 20:00N 36°08' W 005°26'0 0.0
2018-Jan-10 19:31N 36°08' W 005°26'0 0.0
2018-Jan-10 19:00N 36°08' W 005°26'0 0.0
2018-Jan-10 18:30N 36°08' W 005°26'  
Track history (hours):
 
Tides and Currents Weather Stations Pressure Air Temp Water Temp Dewpoint Dewpoint Depression Visibility Wind Speed Wind Dir Waves Ship Positions

V.b Algeciras

Last reported at 2018-Jan-20 18:03 UTC. Time now 2018-Jan-20 21:18 UTC.
Position N 36°08' W 005°25'.

Length 30 m; draft 7 m.

Type: Tug. MMSI: 224121250.

Date/timePositionNaut miles runAvg speedWind from/ knotsBaromVisibWave heightAir tempDewpointWater temp
2018-Jan-20 18:03N 36°08' W 005°25'3 0.2
2018-Jan-19 23:23N 36°10' W 005°23'1 1.9
2018-Jan-19 23:00N 36°11' W 005°24'0 0.0
2018-Jan-19 22:29N 36°11' W 005°24'3 5.3
2018-Jan-19 22:00N 36°08' W 005°25'0 0.7
2018-Jan-19 21:30N 36°08' W 005°26'0 0.0
2018-Jan-19 21:00N 36°08' W 005°26'0 0.0
2018-Jan-19 20:30N 36°08' W 005°26'0 0.0
2018-Jan-19 20:00N 36°08' W 005°26'1 2.0
2018-Jan-19 19:30N 36°09' W 005°26'1 2.5
2018-Jan-19 19:00N 36°08' W 005°25'1 1.3
2018-Jan-19 18:30N 36°08' W 005°26'1 1.5
2018-Jan-19 18:00N 36°08' W 005°26'0 0.0
2018-Jan-19 17:30N 36°08' W 005°26'0 0.0
2018-Jan-19 17:00N 36°08' W 005°26'0 0.0
2018-Jan-19 16:30N 36°08' W 005°26'0 0.0
2018-Jan-19 16:00N 36°08' W 005°26'0 0.0
2018-Jan-19 15:30N 36°08' W 005°26'0 0.0
2018-Jan-19 15:00N 36°08' W 005°26'0 0.0
2018-Jan-19 14:30N 36°08' W 005°26'0 0.0
2018-Jan-19 14:00N 36°08' W 005°26'0 0.0
2018-Jan-19 13:30N 36°08' W 005°26'0 0.0
2018-Jan-19 13:00N 36°08' W 005°26'0 0.0
2018-Jan-19 12:30N 36°08' W 005°26'0 0.0
2018-Jan-19 12:00N 36°08' W 005°26'0 0.0
2018-Jan-19 11:29N 36°08' W 005°26'0 1.0
2018-Jan-19 11:00N 36°08' W 005°26'0 0.9
2018-Jan-19 10:28N 36°08' W 005°26'0 0.1
2018-Jan-19 10:01N 36°08' W 005°26'1 1.6
2018-Jan-19 09:31N 36°08' W 005°26'1 1.6
2018-Jan-19 09:00N 36°08' W 005°26'0 0.0
2018-Jan-19 08:30N 36°08' W 005°26'1 1.4
2018-Jan-19 08:00N 36°08' W 005°26'0 0.5
2018-Jan-19 07:30N 36°08' W 005°26'0 0.0
2018-Jan-19 07:00N 36°08' W 005°26'0 0.0
2018-Jan-19 06:30N 36°08' W 005°26'0 0.3
2018-Jan-19 06:00N 36°08' W 005°26'1 1.5
2018-Jan-19 05:30N 36°08' W 005°25'1 1.7
2018-Jan-19 05:00N 36°08' W 005°26'0 0.0
2018-Jan-19 04:30N 36°08' W 005°26'0 0.0
2018-Jan-19 04:00N 36°08' W 005°26'0 0.0
2018-Jan-19 03:30N 36°08' W 005°26'0 0.0
2018-Jan-19 03:00N 36°08' W 005°26'0 0.0
2018-Jan-19 02:30N 36°08' W 005°26'0 0.0
2018-Jan-19 02:00N 36°08' W 005°26'0 0.0
2018-Jan-19 01:28N 36°08' W 005°26'0 0.0
2018-Jan-19 01:00N 36°08' W 005°26'0 0.0
2018-Jan-19 00:30N 36°08' W 005°26'0 0.0
2018-Jan-19 00:00N 36°08' W 005°26'0 0.0
2018-Jan-18 23:30N 36°08' W 005°26'0 0.0
2018-Jan-18 23:00N 36°08' W 005°26'0 0.0
2018-Jan-18 22:30N 36°08' W 005°26'0 0.0
2018-Jan-18 22:00N 36°08' W 005°26'0 0.0
2018-Jan-18 21:30N 36°08' W 005°26'0 0.0
2018-Jan-18 21:00N 36°08' W 005°26'0 0.0
2018-Jan-18 20:31N 36°08' W 005°26'0 0.6
2018-Jan-18 20:00N 36°08' W 005°25'0 0.3
2018-Jan-18 19:30N 36°08' W 005°26'0 0.0
2018-Jan-18 19:00N 36°08' W 005°26'1 2.2
2018-Jan-18 18:30N 36°09' W 005°26'1 2.2
2018-Jan-18 18:00N 36°08' W 005°26'0 0.4
2018-Jan-18 17:30N 36°08' W 005°26'0 0.0
2018-Jan-18 17:00N 36°08' W 005°26'0 0.0
2018-Jan-18 16:30N 36°08' W 005°26'0 0.0
2018-Jan-18 16:00N 36°08' W 005°26'0 0.0
2018-Jan-18 15:30N 36°08' W 005°26'0 0.0
2018-Jan-18 15:00N 36°08' W 005°26'0 0.0
2018-Jan-18 14:30N 36°08' W 005°26'0 0.0
2018-Jan-18 14:01N 36°08' W 005°26'0 0.0
2018-Jan-18 13:30N 36°08' W 005°26'0 0.0
2018-Jan-18 13:00N 36°08' W 005°26'0 0.0
2018-Jan-18 12:31N 36°08' W 005°26'0 0.0
2018-Jan-18 12:00N 36°08' W 005°26'0 0.0
2018-Jan-18 11:30N 36°08' W 005°26'0 0.0
2018-Jan-18 11:00N 36°08' W 005°26'0 0.0
2018-Jan-18 10:30N 36°08' W 005°26'0 0.5
2018-Jan-18 10:00N 36°08' W 005°26'0 0.5
2018-Jan-18 09:30N 36°08' W 005°26'0 0.0
2018-Jan-18 09:00N 36°08' W 005°26'0 0.0
2018-Jan-18 08:30N 36°08' W 005°26'0 0.0
2018-Jan-18 08:00N 36°08' W 005°26'0 0.0
2018-Jan-18 07:30N 36°08' W 005°26'0 0.0
2018-Jan-18 07:00N 36°08' W 005°26'0 0.0
2018-Jan-18 06:30N 36°08' W 005°26'0 0.0
2018-Jan-18 06:01N 36°08' W 005°26'0 0.8
2018-Jan-18 05:31N 36°08' W 005°26'0 0.0
2018-Jan-18 05:01N 36°08' W 005°26'0 0.0
2018-Jan-18 04:30N 36°08' W 005°26'0 0.0
2018-Jan-18 04:00N 36°08' W 005°26'0 0.0
2018-Jan-18 03:30N 36°08' W 005°26'0 0.0
2018-Jan-18 03:00N 36°08' W 005°26'0 0.0
2018-Jan-18 02:30N 36°08' W 005°26'0 0.0
2018-Jan-18 02:00N 36°08' W 005°26'0 0.0
2018-Jan-18 01:30N 36°08' W 005°26'0 0.0
2018-Jan-18 01:00N 36°08' W 005°26'0 0.0
2018-Jan-18 00:00N 36°08' W 005°26'0 0.0
2018-Jan-17 23:58N 36°08' W 005°26'  
2018-Jan-12 15:00N 36°08' W 005°26'0 0.0
2018-Jan-12 14:30N 36°08' W 005°26'0 0.0
2018-Jan-12 14:00N 36°08' W 005°26'0 0.0
2018-Jan-12 13:30N 36°08' W 005°26'0 0.0
2018-Jan-12 12:58N 36°08' W 005°26'0 0.0
2018-Jan-12 12:30N 36°08' W 005°26'0 0.0
2018-Jan-12 12:00N 36°08' W 005°26'0 0.0
2018-Jan-12 11:30N 36°08' W 005°26'0 0.0
2018-Jan-12 10:59N 36°08' W 005°26'0 0.0
2018-Jan-12 10:30N 36°08' W 005°26'0 0.0
2018-Jan-12 10:00N 36°08' W 005°26'0 0.0
2018-Jan-12 09:30N 36°08' W 005°26'0 0.0
2018-Jan-12 09:00N 36°08' W 005°26'0 0.0
2018-Jan-12 08:30N 36°08' W 005°26'0 0.6
2018-Jan-12 08:01N 36°08' W 005°26'1 1.1
2018-Jan-12 07:30N 36°08' W 005°25'0 0.7
2018-Jan-12 06:59N 36°08' W 005°26'0 0.0
2018-Jan-12 06:30N 36°08' W 005°26'0 0.0
2018-Jan-12 05:59N 36°08' W 005°26'0 0.0
2018-Jan-12 05:31N 36°08' W 005°26'0 0.0
2018-Jan-12 05:00N 36°08' W 005°26'0 0.0
2018-Jan-12 04:31N 36°08' W 005°26'0 0.0
2018-Jan-12 04:00N 36°08' W 005°26'0 0.0
2018-Jan-12 03:30N 36°08' W 005°26'0 0.0
2018-Jan-12 03:00N 36°08' W 005°26'0 0.0
2018-Jan-12 02:31N 36°08' W 005°26'0 0.0
2018-Jan-12 01:58N 36°08' W 005°26'0 0.0
2018-Jan-12 01:30N 36°08' W 005°26'0 0.0
2018-Jan-12 01:00N 36°08' W 005°26'0 0.0
2018-Jan-12 00:30N 36°08' W 005°26'0 0.0
2018-Jan-12 00:00N 36°08' W 005°26'0 0.0
2018-Jan-11 23:30N 36°08' W 005°26'0 0.0
2018-Jan-11 23:00N 36°08' W 005°26'0 0.0
2018-Jan-11 22:30N 36°08' W 005°26'0 0.0
2018-Jan-11 22:00N 36°08' W 005°26'0 0.0
2018-Jan-11 21:30N 36°08' W 005°26'0 0.0
2018-Jan-11 21:00N 36°08' W 005°26'0 0.0
2018-Jan-11 20:30N 36°08' W 005°26'0 0.0
2018-Jan-11 20:00N 36°08' W 005°26'0 0.0
2018-Jan-11 19:30N 36°08' W 005°26'0 0.0
2018-Jan-11 19:00N 36°08' W 005°26'0 0.1
2018-Jan-11 18:30N 36°08' W 005°26'0 0.0
2018-Jan-11 18:00N 36°08' W 005°26'0 0.0
2018-Jan-11 17:30N 36°08' W 005°26'0 0.0
2018-Jan-11 17:00N 36°08' W 005°26'0 0.0
2018-Jan-11 16:30N 36°08' W 005°26'0 0.0
2018-Jan-11 16:00N 36°08' W 005°26'0 0.0
2018-Jan-11 15:29N 36°08' W 005°26'0 0.0
2018-Jan-11 14:58N 36°08' W 005°26'0 0.0
2018-Jan-11 14:30N 36°08' W 005°26'0 0.0
2018-Jan-11 14:00N 36°08' W 005°26'0 0.0
2018-Jan-11 13:29N 36°08' W 005°26'0 0.1
2018-Jan-11 13:01N 36°08' W 005°26'0 0.6
2018-Jan-11 12:30N 36°08' W 005°26'1 1.8
2018-Jan-11 12:00N 36°08' W 005°24'1 2.1
2018-Jan-11 11:30N 36°08' W 005°26'0 0.0
2018-Jan-11 11:00N 36°08' W 005°26'0 0.0
2018-Jan-11 10:30N 36°08' W 005°26'0 0.0
2018-Jan-11 10:00N 36°08' W 005°26'0 0.0
2018-Jan-11 09:30N 36°08' W 005°26'0 0.0
2018-Jan-11 09:00N 36°08' W 005°26'0 0.0
2018-Jan-11 08:30N 36°08' W 005°26'0 0.0
2018-Jan-11 08:00N 36°08' W 005°26'0 0.0
2018-Jan-11 07:30N 36°08' W 005°26'0 0.0
2018-Jan-11 07:00N 36°08' W 005°26'0 0.0
2018-Jan-11 06:30N 36°08' W 005°26'0 0.7
2018-Jan-11 06:00N 36°08' W 005°26'0 0.7
2018-Jan-11 05:30N 36°08' W 005°26'0 0.0
2018-Jan-11 05:01N 36°08' W 005°26'0 0.0
2018-Jan-11 04:30N 36°08' W 005°26'0 0.0
2018-Jan-11 04:00N 36°08' W 005°26'0 0.0
2018-Jan-11 03:30N 36°08' W 005°26'0 0.0
2018-Jan-11 03:00N 36°08' W 005°26'0 0.0
2018-Jan-11 02:30N 36°08' W 005°26'0 0.0
2018-Jan-11 02:01N 36°08' W 005°26'0 0.0
2018-Jan-11 01:30N 36°08' W 005°26'0 0.0
2018-Jan-11 01:00N 36°08' W 005°26'0 0.0
2018-Jan-11 00:30N 36°08' W 005°26'0 0.0
2018-Jan-11 00:00N 36°08' W 005°26'0 0.0
2018-Jan-10 23:30N 36°08' W 005°26'0 0.0
2018-Jan-10 23:00N 36°08' W 005°26'1 1.0
2018-Jan-10 22:30N 36°08' W 005°25'1 1.0
2018-Jan-10 22:00N 36°08' W 005°26'0 0.0
2018-Jan-10 21:30N 36°08' W 005°26'0 0.0
2018-Jan-10 20:59N 36°08' W 005°26'0 0.0
2018-Jan-10 20:30N 36°08' W 005°26'0 0.0
2018-Jan-10 20:00N 36°08' W 005°26'0 0.0
2018-Jan-10 19:31N 36°08' W 005°26'0 0.0
2018-Jan-10 19:00N 36°08' W 005°26'0 0.0
2018-Jan-10 18:30N 36°08' W 005°26'  

Dump ship's entire track history